sensor_id;sensor_type;location;lat;lon;timestamp;noise_LAeq;noise_LA_min;noise_LA_max;noise_LA01;noise_LA95
69610;Laerm;56816;52.192;4.474;2023-05-10T00:00:00;40.95;38.71;43.68;;
69610;Laerm;56816;52.192;4.474;2023-05-10T00:00:10;39.77;36.52;43.03;;
69610;Laerm;56816;52.192;4.474;2023-05-10T00:00:21;41.44;38.25;47.50;;
69610;Laerm;56816;52.192;4.474;2023-05-10T00:00:32;39.93;37.46;42.86;;
69610;Laerm;56816;52.192;4.474;2023-05-10T00:00:42;40.39;37.28;46.76;;
69610;Laerm;56816;52.192;4.474;2023-05-10T00:00:53;38.92;37.06;40.64;;
69610;Laerm;56816;52.192;4.474;2023-05-10T00:01:03;39.86;37.37;45.02;;
69610;Laerm;56816;52.192;4.474;2023-05-10T00:01:13;39.33;37.87;42.34;;
69610;Laerm;56816;52.192;4.474;2023-05-10T00:01:24;44.58;37.62;54.46;;
69610;Laerm;56816;52.192;4.474;2023-05-10T00:01:34;43.47;39.82;49.43;;
69610;Laerm;56816;52.192;4.474;2023-05-10T00:01:44;42.91;38.98;47.74;;
69610;Laerm;56816;52.192;4.474;2023-05-10T00:01:54;41.15;37.75;46.81;;
69610;Laerm;56816;52.192;4.474;2023-05-10T00:02:05;41.10;38.16;45.41;;
69610;Laerm;56816;52.192;4.474;2023-05-10T00:02:15;39.26;37.14;42.48;;
69610;Laerm;56816;52.192;4.474;2023-05-10T00:02:26;40.62;37.33;45.72;;
69610;Laerm;56816;52.192;4.474;2023-05-10T00:02:36;43.16;39.45;48.61;;
69610;Laerm;56816;52.192;4.474;2023-05-10T00:02:46;40.65;38.02;45.30;;
69610;Laerm;56816;52.192;4.474;2023-05-10T00:02:57;41.27;38.12;45.44;;
69610;Laerm;56816;52.192;4.474;2023-05-10T00:03:07;41.62;38.87;46.68;;
69610;Laerm;56816;52.192;4.474;2023-05-10T00:03:17;42.11;38.05;48.59;;
69610;Laerm;56816;52.192;4.474;2023-05-10T00:03:28;39.18;37.38;42.28;;
69610;Laerm;56816;52.192;4.474;2023-05-10T00:03:38;39.03;37.46;40.83;;
69610;Laerm;56816;52.192;4.474;2023-05-10T00:03:48;38.89;37.14;41.57;;
69610;Laerm;56816;52.192;4.474;2023-05-10T00:03:58;38.29;36.39;40.78;;
69610;Laerm;56816;52.192;4.474;2023-05-10T00:04:09;39.83;36.98;45.14;;
69610;Laerm;56816;52.192;4.474;2023-05-10T00:04:19;38.98;37.18;40.81;;
69610;Laerm;56816;52.192;4.474;2023-05-10T00:04:29;44.07;38.87;54.04;;
69610;Laerm;56816;52.192;4.474;2023-05-10T00:04:39;42.03;38.20;46.68;;
69610;Laerm;56816;52.192;4.474;2023-05-10T00:04:49;45.00;41.80;49.84;;
69610;Laerm;56816;52.192;4.474;2023-05-10T00:05:00;44.48;39.88;49.45;;
69610;Laerm;56816;52.192;4.474;2023-05-10T00:05:11;42.65;39.34;47.46;;
69610;Laerm;56816;52.192;4.474;2023-05-10T00:05:21;44.00;39.80;47.43;;
69610;Laerm;56816;52.192;4.474;2023-05-10T00:05:31;42.94;39.14;46.58;;
69610;Laerm;56816;52.192;4.474;2023-05-10T00:05:41;44.17;40.57;49.19;;
69610;Laerm;56816;52.192;4.474;2023-05-10T00:05:52;49.83;44.78;55.52;;
69610;Laerm;56816;52.192;4.474;2023-05-10T00:06:02;48.65;42.66;55.12;;
69610;Laerm;56816;52.192;4.474;2023-05-10T00:06:12;45.56;39.86;52.64;;
69610;Laerm;56816;52.192;4.474;2023-05-10T00:06:22;43.82;40.93;47.82;;
69610;Laerm;56816;52.192;4.474;2023-05-10T00:06:33;41.08;37.66;45.07;;
69610;Laerm;56816;52.192;4.474;2023-05-10T00:06:43;39.77;37.78;42.85;;
69610;Laerm;56816;52.192;4.474;2023-05-10T00:06:53;40.70;37.80;44.76;;
69610;Laerm;56816;52.192;4.474;2023-05-10T00:07:04;42.57;39.18;46.74;;
69610;Laerm;56816;52.192;4.474;2023-05-10T00:07:14;41.31;38.31;48.11;;
69610;Laerm;56816;52.192;4.474;2023-05-10T00:07:25;43.05;39.25;50.34;;
69610;Laerm;56816;52.192;4.474;2023-05-10T00:07:36;44.58;40.02;51.16;;
69610;Laerm;56816;52.192;4.474;2023-05-10T00:07:46;45.41;41.33;49.87;;
69610;Laerm;56816;52.192;4.474;2023-05-10T00:07:56;46.13;42.06;50.63;;
69610;Laerm;56816;52.192;4.474;2023-05-10T00:08:06;47.93;43.25;54.00;;
69610;Laerm;56816;52.192;4.474;2023-05-10T00:08:17;49.37;44.04;52.60;;
69610;Laerm;56816;52.192;4.474;2023-05-10T00:08:27;48.24;44.51;52.97;;
69610;Laerm;56816;52.192;4.474;2023-05-10T00:08:37;47.17;43.47;54.09;;
69610;Laerm;56816;52.192;4.474;2023-05-10T00:08:47;45.97;41.43;51.35;;
69610;Laerm;56816;52.192;4.474;2023-05-10T00:08:58;44.90;41.41;49.32;;
69610;Laerm;56816;52.192;4.474;2023-05-10T00:09:08;43.11;40.17;45.90;;
69610;Laerm;56816;52.192;4.474;2023-05-10T00:09:18;41.53;39.26;44.63;;
69610;Laerm;56816;52.192;4.474;2023-05-10T00:09:29;43.59;40.64;47.58;;
69610;Laerm;56816;52.192;4.474;2023-05-10T00:09:39;42.12;39.39;45.88;;
69610;Laerm;56816;52.192;4.474;2023-05-10T00:09:50;43.50;40.75;46.82;;
69610;Laerm;56816;52.192;4.474;2023-05-10T00:10:00;43.98;40.49;49.66;;
69610;Laerm;56816;52.192;4.474;2023-05-10T00:10:10;42.90;40.83;45.90;;
69610;Laerm;56816;52.192;4.474;2023-05-10T00:10:21;50.82;41.01;57.31;;
69610;Laerm;56816;52.192;4.474;2023-05-10T00:10:31;47.30;41.87;54.21;;
69610;Laerm;56816;52.192;4.474;2023-05-10T00:10:41;45.34;41.30;49.37;;
69610;Laerm;56816;52.192;4.474;2023-05-10T00:10:52;47.44;43.10;53.20;;
69610;Laerm;56816;52.192;4.474;2023-05-10T00:11:02;47.82;41.26;54.92;;
69610;Laerm;56816;52.192;4.474;2023-05-10T00:11:12;42.82;40.34;47.36;;
69610;Laerm;56816;52.192;4.474;2023-05-10T00:11:23;42.03;39.09;46.43;;
69610;Laerm;56816;52.192;4.474;2023-05-10T00:11:33;40.32;38.67;42.33;;
69610;Laerm;56816;52.192;4.474;2023-05-10T00:11:43;41.66;38.97;45.31;;
69610;Laerm;56816;52.192;4.474;2023-05-10T00:11:53;42.84;40.01;47.77;;
69610;Laerm;56816;52.192;4.474;2023-05-10T00:12:04;44.87;41.06;52.00;;
69610;Laerm;56816;52.192;4.474;2023-05-10T00:12:14;43.64;40.08;46.88;;
69610;Laerm;56816;52.192;4.474;2023-05-10T00:12:24;43.85;40.44;47.35;;
69610;Laerm;56816;52.192;4.474;2023-05-10T00:12:35;42.73;40.45;45.53;;
69610;Laerm;56816;52.192;4.474;2023-05-10T00:12:45;42.26;39.83;45.51;;
69610;Laerm;56816;52.192;4.474;2023-05-10T00:12:55;40.65;37.83;47.20;;
69610;Laerm;56816;52.192;4.474;2023-05-10T00:13:05;40.08;37.65;44.67;;
69610;Laerm;56816;52.192;4.474;2023-05-10T00:13:16;44.09;40.68;51.67;;
69610;Laerm;56816;52.192;4.474;2023-05-10T00:13:26;44.22;38.61;52.48;;
69610;Laerm;56816;52.192;4.474;2023-05-10T00:13:36;41.30;38.83;47.70;;
69610;Laerm;56816;52.192;4.474;2023-05-10T00:13:46;40.17;37.75;43.02;;
69610;Laerm;56816;52.192;4.474;2023-05-10T00:13:57;40.66;38.22;44.53;;
69610;Laerm;56816;52.192;4.474;2023-05-10T00:14:07;45.88;40.21;52.61;;
69610;Laerm;56816;52.192;4.474;2023-05-10T00:14:17;48.39;42.45;53.10;;
69610;Laerm;56816;52.192;4.474;2023-05-10T00:14:28;48.23;43.93;52.59;;
69610;Laerm;56816;52.192;4.474;2023-05-10T00:14:38;47.98;43.58;51.38;;
69610;Laerm;56816;52.192;4.474;2023-05-10T00:14:48;45.80;41.42;50.64;;
69610;Laerm;56816;52.192;4.474;2023-05-10T00:14:59;47.91;42.75;53.70;;
69610;Laerm;56816;52.192;4.474;2023-05-10T00:15:10;48.41;40.68;58.54;;
69610;Laerm;56816;52.192;4.474;2023-05-10T00:15:20;43.86;38.61;49.69;;
69610;Laerm;56816;52.192;4.474;2023-05-10T00:15:31;41.42;39.15;47.34;;
69610;Laerm;56816;52.192;4.474;2023-05-10T00:15:41;42.61;38.71;48.57;;
69610;Laerm;56816;52.192;4.474;2023-05-10T00:15:51;44.65;39.23;51.24;;
69610;Laerm;56816;52.192;4.474;2023-05-10T00:16:01;46.00;40.09;56.32;;
69610;Laerm;56816;52.192;4.474;2023-05-10T00:16:11;41.88;38.71;45.64;;
69610;Laerm;56816;52.192;4.474;2023-05-10T00:16:23;43.63;39.62;50.23;;
69610;Laerm;56816;52.192;4.474;2023-05-10T00:16:33;48.55;43.87;53.43;;
69610;Laerm;56816;52.192;4.474;2023-05-10T00:16:43;45.03;40.54;50.24;;
69610;Laerm;56816;52.192;4.474;2023-05-10T00:16:53;42.73;39.60;46.41;;
69610;Laerm;56816;52.192;4.474;2023-05-10T00:17:04;43.18;38.22;47.17;;
69610;Laerm;56816;52.192;4.474;2023-05-10T00:17:14;40.01;37.13;42.75;;
69610;Laerm;56816;52.192;4.474;2023-05-10T00:17:24;40.39;37.28;48.67;;
69610;Laerm;56816;52.192;4.474;2023-05-10T00:17:35;39.41;37.10;46.37;;
69610;Laerm;56816;52.192;4.474;2023-05-10T00:17:45;39.78;37.40;43.20;;
69610;Laerm;56816;52.192;4.474;2023-05-10T00:17:55;41.84;38.10;44.80;;
69610;Laerm;56816;52.192;4.474;2023-05-10T00:18:06;42.04;40.05;44.62;;
69610;Laerm;56816;52.192;4.474;2023-05-10T00:18:16;41.94;39.36;45.82;;
69610;Laerm;56816;52.192;4.474;2023-05-10T00:18:26;39.97;38.22;42.50;;
69610;Laerm;56816;52.192;4.474;2023-05-10T00:18:36;40.14;38.09;48.02;;
69610;Laerm;56816;52.192;4.474;2023-05-10T00:18:47;40.41;38.53;44.26;;
69610;Laerm;56816;52.192;4.474;2023-05-10T00:18:57;40.58;38.82;42.56;;
69610;Laerm;56816;52.192;4.474;2023-05-10T00:19:07;40.78;38.97;42.41;;
69610;Laerm;56816;52.192;4.474;2023-05-10T00:19:17;39.60;37.09;41.69;;
69610;Laerm;56816;52.192;4.474;2023-05-10T00:19:28;40.05;37.71;42.60;;
69610;Laerm;56816;52.192;4.474;2023-05-10T00:19:38;39.82;37.63;43.02;;
69610;Laerm;56816;52.192;4.474;2023-05-10T00:19:48;39.86;37.61;42.21;;
69610;Laerm;56816;52.192;4.474;2023-05-10T00:19:58;41.14;38.08;49.28;;
69610;Laerm;56816;52.192;4.474;2023-05-10T00:20:09;41.18;38.86;43.77;;
69610;Laerm;56816;52.192;4.474;2023-05-10T00:20:19;41.84;38.76;45.94;;
69610;Laerm;56816;52.192;4.474;2023-05-10T00:20:30;42.77;40.03;46.60;;
69610;Laerm;56816;52.192;4.474;2023-05-10T00:20:40;43.41;39.82;48.31;;
69610;Laerm;56816;52.192;4.474;2023-05-10T00:20:50;46.80;42.93;52.32;;
69610;Laerm;56816;52.192;4.474;2023-05-10T00:21:01;45.52;40.43;50.99;;
69610;Laerm;56816;52.192;4.474;2023-05-10T00:21:11;41.85;39.34;47.45;;
69610;Laerm;56816;52.192;4.474;2023-05-10T00:21:21;43.42;40.17;47.12;;
69610;Laerm;56816;52.192;4.474;2023-05-10T00:21:31;46.70;41.90;55.64;;
69610;Laerm;56816;52.192;4.474;2023-05-10T00:21:43;45.18;41.67;49.56;;
69610;Laerm;56816;52.192;4.474;2023-05-10T00:21:53;42.76;39.82;46.41;;
69610;Laerm;56816;52.192;4.474;2023-05-10T00:22:03;41.91;39.19;45.42;;
69610;Laerm;56816;52.192;4.474;2023-05-10T00:22:14;42.11;38.83;49.18;;
69610;Laerm;56816;52.192;4.474;2023-05-10T00:22:24;44.54;41.41;49.03;;
69610;Laerm;56816;52.192;4.474;2023-05-10T00:22:34;47.35;41.71;51.94;;
69610;Laerm;56816;52.192;4.474;2023-05-10T00:22:45;46.27;43.04;50.50;;
69610;Laerm;56816;52.192;4.474;2023-05-10T00:22:55;46.49;43.78;49.90;;
69610;Laerm;56816;52.192;4.474;2023-05-10T00:23:05;47.46;43.81;49.99;;
69610;Laerm;56816;52.192;4.474;2023-05-10T00:23:15;49.86;43.73;58.64;;
69610;Laerm;56816;52.192;4.474;2023-05-10T00:23:26;54.40;41.79;69.13;;
69610;Laerm;56816;52.192;4.474;2023-05-10T00:23:36;44.57;40.67;49.40;;
69610;Laerm;56816;52.192;4.474;2023-05-10T00:23:46;47.24;42.28;52.03;;
69610;Laerm;56816;52.192;4.474;2023-05-10T00:23:56;44.04;40.33;48.87;;
69610;Laerm;56816;52.192;4.474;2023-05-10T00:24:07;42.31;39.67;47.12;;
69610;Laerm;56816;52.192;4.474;2023-05-10T00:24:17;41.26;39.04;43.80;;
69610;Laerm;56816;52.192;4.474;2023-05-10T00:24:27;40.30;37.94;43.93;;
69610;Laerm;56816;52.192;4.474;2023-05-10T00:24:37;41.78;39.22;45.64;;
69610;Laerm;56816;52.192;4.474;2023-05-10T00:24:48;43.52;39.62;50.94;;
69610;Laerm;56816;52.192;4.474;2023-05-10T00:24:58;42.05;39.42;45.21;;
69610;Laerm;56816;52.192;4.474;2023-05-10T00:25:08;41.73;39.25;43.57;;
69610;Laerm;56816;52.192;4.474;2023-05-10T00:25:19;42.96;39.40;47.20;;
69610;Laerm;56816;52.192;4.474;2023-05-10T00:25:31;44.07;40.42;47.44;;
69610;Laerm;56816;52.192;4.474;2023-05-10T00:25:41;42.60;40.42;45.70;;
69610;Laerm;56816;52.192;4.474;2023-05-10T00:25:51;41.81;39.56;45.64;;
69610;Laerm;56816;52.192;4.474;2023-05-10T00:26:02;40.77;38.82;42.85;;
69610;Laerm;56816;52.192;4.474;2023-05-10T00:26:12;43.38;39.27;48.48;;
69610;Laerm;56816;52.192;4.474;2023-05-10T00:26:22;44.03;39.21;48.76;;
69610;Laerm;56816;52.192;4.474;2023-05-10T00:26:32;41.38;39.21;43.41;;
69610;Laerm;56816;52.192;4.474;2023-05-10T00:26:43;41.22;38.87;43.60;;
69610;Laerm;56816;52.192;4.474;2023-05-10T00:26:53;44.33;40.76;48.97;;
69610;Laerm;56816;52.192;4.474;2023-05-10T00:27:03;43.27;40.67;45.86;;
69610;Laerm;56816;52.192;4.474;2023-05-10T00:27:14;46.05;41.56;50.83;;
69610;Laerm;56816;52.192;4.474;2023-05-10T00:27:24;45.91;43.55;49.88;;
69610;Laerm;56816;52.192;4.474;2023-05-10T00:27:34;48.01;43.43;54.50;;
69610;Laerm;56816;52.192;4.474;2023-05-10T00:27:45;47.27;44.02;49.86;;
69610;Laerm;56816;52.192;4.474;2023-05-10T00:27:55;48.54;42.81;52.31;;
69610;Laerm;56816;52.192;4.474;2023-05-10T00:28:07;46.19;42.65;56.71;;
69610;Laerm;56816;52.192;4.474;2023-05-10T00:28:17;42.20;39.96;44.27;;
69610;Laerm;56816;52.192;4.474;2023-05-10T00:28:27;42.16;39.46;45.22;;
69610;Laerm;56816;52.192;4.474;2023-05-10T00:28:38;43.06;40.80;45.93;;
69610;Laerm;56816;52.192;4.474;2023-05-10T00:28:48;41.52;39.22;43.37;;
69610;Laerm;56816;52.192;4.474;2023-05-10T00:28:59;41.86;39.97;44.93;;
69610;Laerm;56816;52.192;4.474;2023-05-10T00:29:09;41.58;39.25;44.45;;
69610;Laerm;56816;52.192;4.474;2023-05-10T00:29:20;40.57;38.53;42.30;;
69610;Laerm;56816;52.192;4.474;2023-05-10T00:29:30;40.69;38.44;44.39;;
69610;Laerm;56816;52.192;4.474;2023-05-10T00:29:41;42.38;38.74;47.25;;
69610;Laerm;56816;52.192;4.474;2023-05-10T00:29:51;45.72;41.36;52.84;;
69610;Laerm;56816;52.192;4.474;2023-05-10T00:30:02;45.77;41.14;52.74;;
69610;Laerm;56816;52.192;4.474;2023-05-10T00:30:12;45.79;40.61;52.72;;
69610;Laerm;56816;52.192;4.474;2023-05-10T00:30:22;41.82;39.22;44.36;;
69610;Laerm;56816;52.192;4.474;2023-05-10T00:30:33;41.19;38.13;45.51;;
69610;Laerm;56816;52.192;4.474;2023-05-10T00:30:43;40.71;38.97;42.83;;
69610;Laerm;56816;52.192;4.474;2023-05-10T00:30:53;41.97;39.15;48.95;;
69610;Laerm;56816;52.192;4.474;2023-05-10T00:31:04;50.80;42.25;65.07;;
69610;Laerm;56816;52.192;4.474;2023-05-10T00:31:14;40.83;38.31;44.45;;
69610;Laerm;56816;52.192;4.474;2023-05-10T00:31:24;42.46;38.73;46.58;;
69610;Laerm;56816;52.192;4.474;2023-05-10T00:31:34;41.56;38.80;49.12;;
69610;Laerm;56816;52.192;4.474;2023-05-10T00:31:45;40.85;38.20;44.72;;
69610;Laerm;56816;52.192;4.474;2023-05-10T00:31:55;39.23;37.15;41.53;;
69610;Laerm;56816;52.192;4.474;2023-05-10T00:32:06;38.82;36.49;46.55;;
69610;Laerm;56816;52.192;4.474;2023-05-10T00:32:16;38.44;37.04;40.63;;
69610;Laerm;56816;52.192;4.474;2023-05-10T00:32:26;39.35;37.48;41.47;;
69610;Laerm;56816;52.192;4.474;2023-05-10T00:32:37;39.49;37.06;47.74;;
69610;Laerm;56816;52.192;4.474;2023-05-10T00:32:47;41.30;38.32;44.44;;
69610;Laerm;56816;52.192;4.474;2023-05-10T00:32:59;42.83;39.87;45.66;;
69610;Laerm;56816;52.192;4.474;2023-05-10T00:33:10;41.99;39.69;43.96;;
69610;Laerm;56816;52.192;4.474;2023-05-10T00:33:21;45.48;40.60;52.06;;
69610;Laerm;56816;52.192;4.474;2023-05-10T00:33:32;41.43;39.67;45.04;;
69610;Laerm;56816;52.192;4.474;2023-05-10T00:33:42;56.64;44.30;65.92;;
69610;Laerm;56816;52.192;4.474;2023-05-10T00:33:52;53.05;43.26;66.32;;
69610;Laerm;56816;52.192;4.474;2023-05-10T00:34:02;45.26;40.90;51.03;;
69610;Laerm;56816;52.192;4.474;2023-05-10T00:34:13;42.86;39.87;47.82;;
69610;Laerm;56816;52.192;4.474;2023-05-10T00:34:23;43.24;40.52;46.59;;
69610;Laerm;56816;52.192;4.474;2023-05-10T00:34:34;47.57;43.77;53.16;;
69610;Laerm;56816;52.192;4.474;2023-05-10T00:34:44;49.59;46.34;53.41;;
69610;Laerm;56816;52.192;4.474;2023-05-10T00:34:55;49.67;41.11;56.83;;
69610;Laerm;56816;52.192;4.474;2023-05-10T00:35:05;40.27;37.60;44.91;;
69610;Laerm;56816;52.192;4.474;2023-05-10T00:35:15;38.83;36.77;41.27;;
69610;Laerm;56816;52.192;4.474;2023-05-10T00:35:25;39.05;36.70;42.73;;
69610;Laerm;56816;52.192;4.474;2023-05-10T00:35:36;49.60;38.23;65.16;;
69610;Laerm;56816;52.192;4.474;2023-05-10T00:35:47;45.57;39.29;55.01;;
69610;Laerm;56816;52.192;4.474;2023-05-10T00:35:58;43.24;39.86;46.98;;
69610;Laerm;56816;52.192;4.474;2023-05-10T00:36:08;43.68;39.73;47.44;;
69610;Laerm;56816;52.192;4.474;2023-05-10T00:36:18;43.68;39.37;48.96;;
69610;Laerm;56816;52.192;4.474;2023-05-10T00:36:29;44.79;41.25;51.92;;
69610;Laerm;56816;52.192;4.474;2023-05-10T00:36:39;43.70;40.49;48.66;;
69610;Laerm;56816;52.192;4.474;2023-05-10T00:36:49;42.62;39.40;47.03;;
69610;Laerm;56816;52.192;4.474;2023-05-10T00:36:59;44.71;42.24;47.13;;
69610;Laerm;56816;52.192;4.474;2023-05-10T00:37:10;45.36;42.52;52.44;;
69610;Laerm;56816;52.192;4.474;2023-05-10T00:37:20;43.35;39.05;50.21;;
69610;Laerm;56816;52.192;4.474;2023-05-10T00:37:30;43.47;40.00;47.42;;
69610;Laerm;56816;52.192;4.474;2023-05-10T00:37:40;43.01;39.23;47.44;;
69610;Laerm;56816;52.192;4.474;2023-05-10T00:37:51;40.44;37.90;44.95;;
69610;Laerm;56816;52.192;4.474;2023-05-10T00:38:01;41.48;39.02;43.79;;
69610;Laerm;56816;52.192;4.474;2023-05-10T00:38:11;42.40;39.48;47.23;;
69610;Laerm;56816;52.192;4.474;2023-05-10T00:38:21;42.19;39.17;47.74;;
69610;Laerm;56816;52.192;4.474;2023-05-10T00:38:32;44.67;40.40;51.41;;
69610;Laerm;56816;52.192;4.474;2023-05-10T00:38:42;43.70;39.84;48.57;;
69610;Laerm;56816;52.192;4.474;2023-05-10T00:38:52;42.05;38.52;45.42;;
69610;Laerm;56816;52.192;4.474;2023-05-10T00:39:03;39.21;37.21;42.44;;
69610;Laerm;56816;52.192;4.474;2023-05-10T00:39:13;39.57;36.30;46.49;;
69610;Laerm;56816;52.192;4.474;2023-05-10T00:39:23;39.27;37.28;47.51;;
69610;Laerm;56816;52.192;4.474;2023-05-10T00:39:34;48.08;38.49;60.31;;
69610;Laerm;56816;52.192;4.474;2023-05-10T00:39:44;46.30;40.04;52.78;;
69610;Laerm;56816;52.192;4.474;2023-05-10T00:39:54;43.00;39.53;46.45;;
69610;Laerm;56816;52.192;4.474;2023-05-10T00:40:05;43.11;39.12;47.59;;
69610;Laerm;56816;52.192;4.474;2023-05-10T00:40:15;42.59;39.58;46.75;;
69610;Laerm;56816;52.192;4.474;2023-05-10T00:40:26;42.17;38.47;47.85;;
69610;Laerm;56816;52.192;4.474;2023-05-10T00:40:36;38.75;36.74;41.75;;
69610;Laerm;56816;52.192;4.474;2023-05-10T00:40:47;42.16;37.98;47.57;;
69610;Laerm;56816;52.192;4.474;2023-05-10T00:40:57;44.62;40.84;49.03;;
69610;Laerm;56816;52.192;4.474;2023-05-10T00:41:07;47.33;41.16;52.90;;
69610;Laerm;56816;52.192;4.474;2023-05-10T00:41:18;47.58;43.18;50.96;;
69610;Laerm;56816;52.192;4.474;2023-05-10T00:41:29;47.82;42.42;54.20;;
69610;Laerm;56816;52.192;4.474;2023-05-10T00:41:41;46.20;41.83;51.73;;
69610;Laerm;56816;52.192;4.474;2023-05-10T00:41:51;42.23;39.22;46.24;;
69610;Laerm;56816;52.192;4.474;2023-05-10T00:42:02;42.62;39.18;46.41;;
69610;Laerm;56816;52.192;4.474;2023-05-10T00:42:12;41.19;38.87;44.63;;
69610;Laerm;56816;52.192;4.474;2023-05-10T00:42:22;41.25;38.62;44.70;;
69610;Laerm;56816;52.192;4.474;2023-05-10T00:42:33;41.42;39.31;43.63;;
69610;Laerm;56816;52.192;4.474;2023-05-10T00:42:43;40.62;38.47;43.34;;
69610;Laerm;56816;52.192;4.474;2023-05-10T00:42:53;40.47;38.06;43.04;;
69610;Laerm;56816;52.192;4.474;2023-05-10T00:43:04;44.51;38.15;52.73;;
69610;Laerm;56816;52.192;4.474;2023-05-10T00:43:15;45.00;40.69;48.31;;
69610;Laerm;56816;52.192;4.474;2023-05-10T00:43:25;48.68;43.84;53.24;;
69610;Laerm;56816;52.192;4.474;2023-05-10T00:43:35;47.22;42.87;51.47;;
69610;Laerm;56816;52.192;4.474;2023-05-10T00:43:45;45.56;41.75;49.53;;
69610;Laerm;56816;52.192;4.474;2023-05-10T00:43:56;43.06;40.85;46.04;;
69610;Laerm;56816;52.192;4.474;2023-05-10T00:44:06;44.52;41.88;52.11;;
69610;Laerm;56816;52.192;4.474;2023-05-10T00:44:16;47.19;44.04;50.17;;
69610;Laerm;56816;52.192;4.474;2023-05-10T00:44:28;43.57;40.77;47.34;;
69610;Laerm;56816;52.192;4.474;2023-05-10T00:44:38;41.64;39.23;44.67;;
69610;Laerm;56816;52.192;4.474;2023-05-10T00:44:48;39.95;37.00;42.44;;
69610;Laerm;56816;52.192;4.474;2023-05-10T00:44:59;41.00;38.33;45.14;;
69610;Laerm;56816;52.192;4.474;2023-05-10T00:45:09;40.70;37.73;43.26;;
69610;Laerm;56816;52.192;4.474;2023-05-10T00:45:19;41.84;37.11;47.64;;
69610;Laerm;56816;52.192;4.474;2023-05-10T00:45:30;42.09;38.88;45.75;;
69610;Laerm;56816;52.192;4.474;2023-05-10T00:45:41;41.59;38.32;45.77;;
69610;Laerm;56816;52.192;4.474;2023-05-10T00:45:52;40.54;37.61;44.69;;
69610;Laerm;56816;52.192;4.474;2023-05-10T00:46:02;41.37;38.49;47.30;;
69610;Laerm;56816;52.192;4.474;2023-05-10T00:46:14;40.03;36.50;45.22;;
69610;Laerm;56816;52.192;4.474;2023-05-10T00:46:25;39.81;36.24;50.56;;
69610;Laerm;56816;52.192;4.474;2023-05-10T00:46:35;38.97;36.57;41.73;;
69610;Laerm;56816;52.192;4.474;2023-05-10T00:46:46;38.73;36.73;41.60;;
69610;Laerm;56816;52.192;4.474;2023-05-10T00:46:57;41.23;36.87;45.30;;
69610;Laerm;56816;52.192;4.474;2023-05-10T00:47:07;46.52;42.75;52.02;;
69610;Laerm;56816;52.192;4.474;2023-05-10T00:47:18;48.20;45.09;51.77;;
69610;Laerm;56816;52.192;4.474;2023-05-10T00:47:28;46.06;42.85;49.57;;
69610;Laerm;56816;52.192;4.474;2023-05-10T00:47:39;44.71;41.97;48.44;;
69610;Laerm;56816;52.192;4.474;2023-05-10T00:47:49;45.52;43.17;48.40;;
69610;Laerm;56816;52.192;4.474;2023-05-10T00:48:03;46.75;41.72;52.57;;
69610;Laerm;56816;52.192;4.474;2023-05-10T00:48:13;43.96;40.18;47.42;;
69610;Laerm;56816;52.192;4.474;2023-05-10T00:48:23;42.27;39.76;45.64;;
69610;Laerm;56816;52.192;4.474;2023-05-10T00:48:34;44.68;37.47;49.83;;
69610;Laerm;56816;52.192;4.474;2023-05-10T00:48:44;38.88;36.90;42.33;;
69610;Laerm;56816;52.192;4.474;2023-05-10T00:48:55;38.06;35.95;42.50;;
69610;Laerm;56816;52.192;4.474;2023-05-10T00:49:05;40.47;36.72;44.24;;
69610;Laerm;56816;52.192;4.474;2023-05-10T00:49:16;39.19;35.86;45.15;;
69610;Laerm;56816;52.192;4.474;2023-05-10T00:49:26;39.50;35.47;42.06;;
69610;Laerm;56816;52.192;4.474;2023-05-10T00:49:36;44.12;40.30;48.46;;
69610;Laerm;56816;52.192;4.474;2023-05-10T00:49:47;44.99;42.76;49.13;;
69610;Laerm;56816;52.192;4.474;2023-05-10T00:49:58;46.65;42.54;51.14;;
69610;Laerm;56816;52.192;4.474;2023-05-10T00:50:08;46.69;42.47;50.20;;
69610;Laerm;56816;52.192;4.474;2023-05-10T00:50:19;46.59;43.37;49.27;;
69610;Laerm;56816;52.192;4.474;2023-05-10T00:50:30;47.45;43.31;51.07;;
69610;Laerm;56816;52.192;4.474;2023-05-10T00:50:40;40.97;36.67;46.84;;
69610;Laerm;56816;52.192;4.474;2023-05-10T00:50:51;40.67;37.86;43.12;;
69610;Laerm;56816;52.192;4.474;2023-05-10T00:51:01;39.54;36.56;43.36;;
69610;Laerm;56816;52.192;4.474;2023-05-10T00:51:12;40.63;38.09;43.57;;
69610;Laerm;56816;52.192;4.474;2023-05-10T00:51:23;42.46;38.66;47.80;;
69610;Laerm;56816;52.192;4.474;2023-05-10T00:51:33;46.02;40.78;49.82;;
69610;Laerm;56816;52.192;4.474;2023-05-10T00:51:43;48.05;44.09;51.33;;
69610;Laerm;56816;52.192;4.474;2023-05-10T00:51:54;53.64;44.40;59.72;;
69610;Laerm;56816;52.192;4.474;2023-05-10T00:52:04;46.07;41.33;48.71;;
69610;Laerm;56816;52.192;4.474;2023-05-10T00:52:15;43.28;40.90;46.08;;
69610;Laerm;56816;52.192;4.474;2023-05-10T00:52:29;42.83;40.18;46.90;;
69610;Laerm;56816;52.192;4.474;2023-05-10T00:52:40;42.74;39.29;48.99;;
69610;Laerm;56816;52.192;4.474;2023-05-10T00:52:50;43.35;39.47;49.97;;
69610;Laerm;56816;52.192;4.474;2023-05-10T00:53:00;43.71;39.81;49.42;;
69610;Laerm;56816;52.192;4.474;2023-05-10T00:53:11;41.66;38.08;45.72;;
69610;Laerm;56816;52.192;4.474;2023-05-10T00:53:21;43.23;38.82;48.48;;
69610;Laerm;56816;52.192;4.474;2023-05-10T00:53:32;48.20;40.00;53.17;;
69610;Laerm;56816;52.192;4.474;2023-05-10T00:53:44;48.06;42.49;57.02;;
69610;Laerm;56816;52.192;4.474;2023-05-10T00:53:55;58.00;42.17;66.94;;
69610;Laerm;56816;52.192;4.474;2023-05-10T00:54:06;44.99;41.04;50.12;;
69610;Laerm;56816;52.192;4.474;2023-05-10T00:54:16;48.95;44.53;51.91;;
69610;Laerm;56816;52.192;4.474;2023-05-10T00:54:27;44.80;40.67;48.70;;
69610;Laerm;56816;52.192;4.474;2023-05-10T00:54:37;42.28;39.49;46.08;;
69610;Laerm;56816;52.192;4.474;2023-05-10T00:54:47;42.64;39.83;45.28;;
69610;Laerm;56816;52.192;4.474;2023-05-10T00:54:58;41.65;39.45;44.39;;
69610;Laerm;56816;52.192;4.474;2023-05-10T00:55:09;43.00;40.37;45.51;;
69610;Laerm;56816;52.192;4.474;2023-05-10T00:55:19;41.14;38.46;43.94;;
69610;Laerm;56816;52.192;4.474;2023-05-10T00:55:30;41.08;38.11;45.40;;
69610;Laerm;56816;52.192;4.474;2023-05-10T00:55:40;41.42;38.31;44.86;;
69610;Laerm;56816;52.192;4.474;2023-05-10T00:55:51;43.26;38.86;49.31;;
69610;Laerm;56816;52.192;4.474;2023-05-10T00:56:01;42.54;39.17;45.92;;
69610;Laerm;56816;52.192;4.474;2023-05-10T00:56:13;43.00;38.30;51.04;;
69610;Laerm;56816;52.192;4.474;2023-05-10T00:56:23;41.90;38.82;47.47;;
69610;Laerm;56816;52.192;4.474;2023-05-10T00:56:34;39.82;37.55;43.50;;
69610;Laerm;56816;52.192;4.474;2023-05-10T00:56:44;40.87;38.31;44.67;;
69610;Laerm;56816;52.192;4.474;2023-05-10T00:56:59;44.30;40.96;48.16;;
69610;Laerm;56816;52.192;4.474;2023-05-10T00:57:09;46.68;39.04;50.44;;
69610;Laerm;56816;52.192;4.474;2023-05-10T00:57:20;39.30;36.81;42.47;;
69610;Laerm;56816;52.192;4.474;2023-05-10T00:57:30;38.51;36.06;41.51;;
69610;Laerm;56816;52.192;4.474;2023-05-10T00:57:41;38.99;36.49;43.40;;
69610;Laerm;56816;52.192;4.474;2023-05-10T00:57:52;42.00;37.13;48.36;;
69610;Laerm;56816;52.192;4.474;2023-05-10T00:58:03;44.97;41.43;49.13;;
69610;Laerm;56816;52.192;4.474;2023-05-10T00:58:14;42.69;37.30;47.30;;
69610;Laerm;56816;52.192;4.474;2023-05-10T00:58:25;38.43;36.32;40.53;;